createdAt,value
2022-08-14T00:00:05.938Z,43.31
2022-08-14T00:02:34.404Z,43.32
2022-08-14T00:05:07.380Z,43.67
2022-08-14T00:07:41.936Z,44.01
2022-08-14T00:10:49.845Z,43.98
2022-08-14T00:13:06.996Z,44.04
2022-08-14T00:15:44.343Z,43.75
2022-08-14T00:18:30.810Z,43.99
2022-08-14T00:21:10.871Z,43.95
2022-08-14T00:23:43.213Z,43.79
2022-08-14T00:26:21.719Z,44.05
2022-08-14T00:28:51.857Z,44.10
2022-08-14T00:31:32.966Z,44.13
2022-08-14T00:34:36.448Z,44.12
2022-08-14T00:36:59.315Z,44.21
2022-08-14T00:39:29.239Z,44.23
2022-08-14T00:41:58.676Z,43.86
2022-08-14T00:44:32.658Z,43.94
2022-08-14T00:47:03.563Z,43.92
2022-08-14T00:49:38.155Z,44.21
2022-08-14T00:52:13.846Z,44.13
2022-08-14T00:54:45.278Z,44.08
2022-08-14T00:57:14.173Z,44.07
2022-08-14T00:59:42.611Z,44.19
2022-08-14T01:02:11.796Z,44.29
2022-08-14T01:04:54.462Z,44.40
2022-08-14T01:07:27.135Z,43.94
2022-08-14T01:10:01.371Z,44.40
2022-08-14T01:12:31.070Z,43.98
2022-08-14T01:15:02.145Z,44.29
2022-08-14T01:17:49.995Z,44.01
2022-08-14T01:20:40.002Z,43.79
2022-08-14T01:23:16.446Z,44.29
2022-08-14T01:25:51.386Z,44.13
2022-08-14T01:28:34.519Z,43.80
2022-08-14T01:31:15.350Z,44.03
2022-08-14T01:34:00.472Z,44.10
2022-08-14T01:36:39.436Z,44.14
2022-08-14T01:39:14.028Z,43.79
2022-08-14T01:41:44.561Z,43.84
2022-08-14T01:44:32.800Z,44.28
2022-08-14T01:47:16.481Z,43.84
2022-08-14T01:49:59.566Z,44.08
2022-08-14T01:53:00.128Z,44.68
2022-08-14T01:55:32.558Z,44.61
2022-08-14T01:58:19.456Z,44.41
2022-08-14T02:00:55.013Z,44.63
2022-08-14T02:03:30.267Z,44.61
2022-08-14T02:06:04.153Z,44.38
2022-08-14T02:08:52.617Z,44.40
2022-08-14T02:11:26.851Z,44.85
2022-08-14T02:14:07.178Z,44.71
2022-08-14T02:16:40.489Z,44.34
2022-08-14T02:19:13.590Z,44.64
2022-08-14T02:21:48.840Z,45.01
2022-08-14T02:24:39.670Z,44.91
2022-08-14T02:28:22.507Z,44.61
2022-08-14T02:30:02.534Z,44.97
2022-08-14T02:32:36.230Z,44.85
2022-08-14T02:35:13.874Z,44.65
2022-08-14T02:37:48.323Z,44.52
2022-08-14T02:40:18.606Z,44.66
2022-08-14T02:42:55.040Z,44.57
2022-08-14T02:45:44.205Z,44.71
2022-08-14T02:49:03.761Z,45.14
2022-08-14T02:51:08.966Z,44.92
2022-08-14T02:53:42.344Z,45.13
2022-08-14T02:56:30.304Z,44.86
2022-08-14T02:59:05.819Z,44.65
2022-08-14T03:01:43.518Z,44.83
2022-08-14T03:04:13.583Z,45.28
2022-08-14T03:06:57.078Z,45.03
2022-08-14T03:10:25.274Z,45.08
2022-08-14T03:12:17.955Z,45.46
2022-08-14T03:15:13.843Z,45.65
2022-08-14T03:17:57.074Z,45.50
2022-08-14T03:20:29.003Z,45.52
2022-08-14T03:23:03.165Z,45.97
2022-08-14T03:25:33.504Z,45.38
2022-08-14T03:28:07.187Z,45.56
2022-08-14T03:30:39.981Z,45.47
2022-08-14T03:33:13.097Z,45.68
2022-08-14T03:36:05.601Z,45.56
2022-08-14T03:39:14.408Z,45.54
2022-08-14T03:41:23.627Z,45.79
2022-08-14T03:43:57.484Z,45.59
2022-08-14T03:46:54.391Z,46.03
2022-08-14T03:49:28.433Z,45.87
2022-08-14T03:52:01.188Z,45.53
2022-08-14T03:54:30.215Z,45.65
2022-08-14T03:57:02.911Z,45.67
2022-08-14T03:59:32.351Z,45.82
2022-08-14T04:02:04.825Z,46.04
2022-08-14T04:04:53.522Z,45.74
2022-08-14T04:07:22.731Z,45.56
2022-08-14T04:09:52.717Z,46.04
2022-08-14T04:12:26.431Z,45.51
2022-08-14T04:14:55.679Z,45.82
2022-08-14T04:17:26.370Z,45.66
2022-08-14T04:19:55.488Z,45.72
2022-08-14T04:22:25.271Z,45.58
2022-08-14T04:24:53.960Z,45.87
2022-08-14T04:27:23.332Z,45.56
2022-08-14T04:29:51.748Z,45.91
2022-08-14T04:32:57.751Z,45.64
2022-08-14T04:35:12.966Z,45.83
2022-08-14T04:38:37.048Z,45.61
2022-08-14T04:41:15.840Z,46.13
2022-08-14T04:43:44.230Z,45.90
2022-08-14T04:46:56.378Z,46.11
2022-08-14T04:49:08.077Z,46.14
2022-08-14T04:51:46.756Z,45.78
2022-08-14T04:54:26.989Z,45.60
2022-08-14T04:56:56.513Z,45.73
2022-08-14T04:59:25.509Z,45.80
2022-08-14T05:01:57.289Z,45.89
2022-08-14T05:04:26.255Z,45.99
2022-08-14T05:06:56.273Z,45.72
2022-08-14T05:09:29.161Z,45.59
2022-08-14T05:12:23.925Z,45.39
2022-08-14T05:14:54.643Z,45.95
2022-08-14T05:17:32.148Z,45.79
2022-08-14T05:21:04.170Z,45.91
2022-08-14T05:23:03.668Z,45.45
2022-08-14T05:25:33.728Z,45.46
2022-08-14T05:28:12.328Z,45.40
2022-08-14T05:30:44.518Z,45.36
2022-08-14T05:33:14.106Z,45.24
2022-08-14T05:35:44.314Z,45.50
2022-08-14T05:38:30.593Z,44.89
2022-08-14T05:41:00.293Z,45.35
2022-08-14T05:43:40.659Z,45.46
2022-08-14T05:46:12.240Z,44.88
2022-08-14T05:48:44.226Z,45.01
2022-08-14T05:51:14.155Z,45.30
2022-08-14T05:54:00.100Z,44.60
2022-08-14T05:56:30.942Z,44.63
2022-08-14T05:59:00.877Z,44.61
2022-08-14T06:01:31.813Z,44.10
2022-08-14T06:04:00.678Z,44.30
2022-08-14T06:06:31.659Z,43.59
2022-08-14T06:09:03.600Z,43.50
2022-08-14T06:11:32.009Z,43.47
2022-08-14T06:14:00.806Z,43.21
2022-08-14T06:16:31.977Z,43.01
2022-08-14T06:19:01.502Z,43.20
2022-08-14T06:21:29.909Z,43.18
2022-08-14T06:24:02.655Z,43.27
2022-08-14T06:26:31.259Z,42.90
2022-08-14T06:28:59.996Z,42.98
2022-08-14T06:31:28.492Z,43.13
2022-08-14T06:35:04.643Z,42.97
2022-08-14T06:36:45.412Z,42.99
2022-08-14T06:39:17.294Z,42.57
2022-08-14T06:41:58.452Z,43.01
2022-08-14T06:44:32.507Z,43.14
2022-08-14T06:47:02.817Z,42.83
2022-08-14T06:49:40.251Z,42.68
2022-08-14T06:52:15.322Z,42.78
2022-08-14T06:54:46.952Z,43.16
2022-08-14T06:57:15.321Z,42.70
2022-08-14T06:59:43.781Z,43.01
2022-08-14T07:02:29.818Z,42.71
2022-08-14T07:05:20.990Z,42.79
2022-08-14T07:07:52.670Z,42.86
2022-08-14T07:10:25.435Z,42.76
2022-08-14T07:13:01.551Z,42.75
2022-08-14T07:15:39.659Z,42.63
2022-08-14T07:18:10.332Z,42.52
2022-08-14T07:20:40.241Z,42.70
2022-08-14T07:23:20.965Z,42.38
2022-08-14T07:25:58.333Z,42.68
2022-08-14T07:28:31.490Z,42.22
2022-08-14T07:31:04.942Z,42.29
2022-08-14T07:33:42.049Z,42.00
2022-08-14T07:36:26.957Z,42.10
2022-08-14T07:38:59.719Z,41.77
2022-08-14T07:41:34.215Z,41.46
2022-08-14T07:44:22.627Z,41.50
2022-08-14T07:46:53.885Z,41.57
2022-08-14T07:49:24.308Z,41.64
2022-08-14T07:51:52.898Z,41.36
2022-08-14T07:54:23.458Z,41.38
2022-08-14T07:57:11.818Z,40.96
2022-08-14T07:59:43.553Z,41.22
2022-08-14T08:02:18.077Z,41.21
2022-08-14T08:04:54.234Z,40.69
2022-08-14T08:07:24.094Z,40.77
2022-08-14T08:09:59.598Z,40.68
2022-08-14T08:12:32.458Z,40.75
2022-08-14T08:15:07.153Z,40.64
2022-08-14T08:17:38.752Z,40.61
2022-08-14T08:20:12.076Z,40.54
2022-08-14T08:22:43.415Z,40.45
2022-08-14T08:25:17.785Z,39.99
2022-08-14T08:27:59.677Z,40.26
2022-08-14T08:30:29.890Z,40.21
2022-08-14T08:33:02.978Z,40.11
2022-08-14T08:35:46.859Z,39.97
2022-08-14T08:39:14.738Z,39.92
2022-08-14T08:41:11.786Z,39.86
2022-08-14T08:43:46.254Z,40.08
2022-08-14T08:46:23.914Z,39.80
2022-08-14T08:51:33.550Z,39.62
2022-08-14T08:54:06.007Z,39.51
2022-08-14T08:56:40.513Z,39.67
2022-08-14T08:59:31.052Z,39.68
2022-08-14T09:02:04.182Z,39.48
2022-08-14T09:04:45.191Z,38.47
2022-08-14T09:07:27.273Z,38.31
2022-08-14T09:09:59.904Z,38.57
2022-08-14T09:12:32.642Z,38.10
2022-08-14T09:15:11.647Z,37.92
2022-08-14T09:17:42.203Z,37.80
2022-08-14T09:20:12.947Z,37.21
2022-08-14T09:22:47.530Z,37.32
2022-08-14T09:25:19.519Z,36.75
2022-08-14T09:27:48.183Z,35.93
2022-08-14T09:30:30.835Z,36.20
2022-08-14T09:33:56.585Z,36.36
2022-08-14T09:37:03.938Z,36.91
2022-08-14T09:39:48.381Z,36.20
2022-08-14T09:43:05.681Z,36.09
2022-08-14T09:45:52.421Z,35.59
2022-08-14T09:48:30.253Z,35.78
2022-08-14T09:54:18.978Z,35.62
2022-08-14T09:56:43.972Z,35.02
2022-08-14T09:59:16.140Z,34.52
2022-08-14T10:01:52.695Z,34.79
2022-08-14T10:04:36.535Z,34.24
2022-08-14T10:07:08.456Z,34.86
2022-08-14T10:09:57.571Z,34.62
2022-08-14T10:12:42.390Z,34.34
2022-08-14T10:15:22.008Z,34.34
2022-08-14T10:18:09.621Z,33.77
2022-08-14T10:20:57.754Z,33.85
2022-08-14T10:23:34.000Z,33.56
2022-08-14T10:26:08.778Z,32.86
2022-08-14T10:29:17.697Z,33.36
2022-08-14T10:31:44.680Z,32.97
2022-08-14T10:34:29.249Z,32.67
2022-08-14T10:37:14.529Z,32.76
2022-08-14T10:40:01.929Z,32.60
2022-08-14T10:42:38.462Z,32.58
2022-08-14T10:45:21.745Z,32.40
2022-08-14T10:48:09.497Z,32.38
2022-08-14T10:50:50.492Z,32.72
2022-08-14T10:53:31.116Z,32.56
2022-08-14T10:56:06.930Z,33.10
2022-08-14T10:58:50.617Z,33.09
2022-08-14T11:01:40.871Z,33.42
2022-08-14T11:04:30.128Z,32.61
2022-08-14T11:07:00.732Z,32.51
2022-08-14T11:09:31.480Z,32.28
2022-08-14T11:12:39.949Z,31.65
2022-08-14T11:14:59.345Z,31.45
2022-08-14T11:17:32.505Z,31.75
2022-08-14T11:20:03.745Z,31.47
2022-08-14T11:22:52.605Z,31.38
2022-08-14T11:25:41.270Z,31.52
2022-08-14T11:28:18.833Z,31.59
2022-08-14T11:30:54.248Z,31.35
2022-08-14T11:33:31.085Z,30.33
2022-08-14T11:36:02.004Z,30.72
2022-08-14T11:38:38.505Z,30.72
2022-08-14T11:41:07.869Z,30.74
2022-08-14T11:43:41.908Z,29.84
2022-08-14T11:46:17.923Z,30.14
2022-08-14T11:49:03.665Z,29.91
2022-08-14T11:51:36.139Z,29.83
2022-08-14T11:54:20.762Z,29.08
2022-08-14T11:57:04.659Z,28.73
2022-08-14T11:59:34.237Z,28.64
2022-08-14T12:03:10.963Z,28.48
2022-08-14T12:05:00.642Z,28.29
2022-08-14T12:07:33.401Z,28.43
2022-08-14T12:10:26.605Z,28.10
2022-08-14T12:12:54.949Z,27.97
2022-08-14T12:15:32.838Z,28.47
2022-08-14T12:18:02.158Z,28.45
2022-08-14T12:20:36.733Z,28.92
2022-08-14T12:23:07.318Z,28.86
2022-08-14T12:25:37.349Z,29.11
2022-08-14T12:28:27.391Z,29.55
2022-08-14T12:31:13.555Z,29.41
2022-08-14T12:33:47.190Z,29.38
2022-08-14T12:36:23.818Z,29.98
2022-08-14T12:38:55.503Z,29.52
2022-08-14T12:41:34.281Z,29.01
2022-08-14T12:44:08.564Z,26.89
2022-08-14T12:46:43.490Z,24.57
2022-08-14T12:49:17.841Z,23.65
2022-08-14T12:51:58.170Z,22.76
2022-08-14T12:54:29.334Z,22.35
2022-08-14T12:57:19.490Z,21.78
2022-08-14T12:59:49.764Z,21.80
2022-08-14T13:02:25.962Z,22.21
2022-08-14T13:04:56.538Z,22.06
2022-08-14T13:07:32.879Z,22.18
2022-08-14T13:10:34.335Z,21.29
2022-08-14T13:13:13.068Z,21.36
2022-08-14T13:15:45.412Z,21.62
2022-08-14T13:18:16.872Z,21.89
2022-08-14T13:20:48.107Z,21.03
2022-08-14T13:23:30.713Z,20.20
2022-08-14T13:26:01.638Z,19.86
2022-08-14T13:28:41.300Z,19.69
2022-08-14T13:31:30.113Z,18.90
2022-08-14T13:34:00.238Z,18.40
2022-08-14T13:36:51.916Z,17.52
2022-08-14T13:39:19.673Z,16.48
2022-08-14T13:41:55.527Z,15.39
2022-08-14T13:44:28.781Z,15.43
2022-08-14T13:46:58.653Z,15.33
2022-08-14T13:49:28.994Z,15.10
2022-08-14T13:52:04.330Z,14.32
2022-08-14T13:54:55.697Z,14.57
2022-08-14T13:57:30.506Z,14.26
2022-08-14T14:00:10.679Z,13.73
2022-08-14T14:02:43.420Z,13.59
2022-08-14T14:05:18.800Z,13.50
2022-08-14T14:07:52.987Z,12.76
2022-08-14T14:10:28.544Z,12.51
2022-08-14T14:12:57.563Z,12.95
2022-08-14T14:15:48.496Z,12.59
2022-08-14T14:18:34.633Z,12.67
2022-08-14T14:21:06.551Z,11.77
2022-08-14T14:23:38.311Z,12.08
2022-08-14T14:26:08.123Z,11.98
2022-08-14T14:28:45.210Z,12.27
2022-08-14T14:31:16.405Z,11.90
2022-08-14T14:33:48.871Z,11.48
2022-08-14T14:36:22.676Z,11.57
2022-08-14T14:38:56.102Z,11.67
2022-08-14T14:41:38.058Z,11.52
2022-08-14T14:44:15.812Z,11.01
2022-08-14T14:46:51.129Z,11.31
2022-08-14T14:49:31.807Z,11.51
2022-08-14T14:52:23.423Z,11.90
2022-08-14T14:54:58.574Z,11.68
2022-08-14T14:57:34.915Z,11.69
2022-08-14T15:00:13.051Z,11.75
2022-08-14T15:02:45.606Z,12.10
2022-08-14T15:05:17.520Z,12.42
2022-08-14T15:07:51.417Z,13.20
2022-08-14T15:10:28.009Z,13.99
2022-08-14T15:13:04.222Z,14.44
2022-08-14T15:15:36.869Z,15.29
2022-08-14T15:18:14.965Z,16.16
2022-08-14T15:21:02.734Z,16.48
2022-08-14T15:23:44.298Z,17.39
2022-08-14T15:26:24.125Z,17.80
2022-08-14T15:29:05.856Z,17.94
2022-08-14T15:31:37.462Z,18.45
2022-08-14T15:34:40.980Z,18.75
2022-08-14T15:37:02.266Z,18.92
2022-08-14T15:39:35.909Z,19.50
2022-08-14T15:42:14.435Z,19.84
2022-08-14T15:44:58.095Z,20.82
2022-08-14T15:47:33.340Z,21.06
2022-08-14T15:50:10.015Z,21.46
2022-08-14T15:52:39.199Z,21.67
2022-08-14T15:55:14.760Z,21.93
2022-08-14T15:58:01.358Z,22.27
2022-08-14T16:00:51.894Z,22.53
2022-08-14T16:03:27.414Z,23.05
2022-08-14T16:06:11.059Z,23.76
2022-08-14T16:08:46.663Z,23.69
2022-08-14T16:11:20.426Z,23.91
2022-08-14T16:13:50.328Z,24.47
2022-08-14T16:16:47.243Z,24.64
2022-08-14T16:19:14.193Z,24.63
2022-08-14T16:22:01.659Z,24.92
2022-08-14T16:24:59.842Z,25.27
2022-08-14T16:27:37.179Z,25.14
2022-08-14T16:30:24.849Z,25.70
2022-08-14T16:32:56.802Z,26.36
2022-08-14T16:35:42.508Z,25.82
2022-08-14T16:38:46.138Z,26.06
2022-08-14T16:41:23.069Z,26.37
2022-08-14T16:43:58.862Z,26.73
2022-08-14T16:46:32.667Z,26.71
2022-08-14T16:49:02.525Z,26.63
2022-08-14T16:51:36.516Z,26.64
2022-08-14T16:54:34.605Z,27.13
2022-08-14T16:57:22.650Z,27.29
2022-08-14T16:59:57.331Z,26.91
2022-08-14T17:02:39.080Z,27.19
2022-08-14T17:05:20.972Z,27.14
2022-08-14T17:08:32.858Z,27.45
2022-08-14T17:11:10.835Z,27.50
2022-08-14T17:13:59.700Z,28.12
2022-08-14T17:16:37.525Z,28.39
2022-08-14T17:19:13.378Z,28.05
2022-08-14T17:21:47.028Z,28.20
2022-08-14T17:24:56.451Z,28.69
2022-08-14T17:27:18.374Z,28.50
2022-08-14T17:29:56.316Z,28.81
2022-08-14T17:32:56.883Z,28.82
2022-08-14T17:35:57.737Z,28.91
2022-08-14T17:38:38.812Z,28.81
2022-08-14T17:41:27.098Z,29.32
2022-08-14T17:44:19.912Z,29.44
2022-08-14T17:46:55.348Z,29.56
2022-08-14T17:49:32.156Z,29.91
2022-08-14T17:52:17.574Z,30.24
2022-08-14T17:54:53.001Z,30.23
2022-08-14T17:57:28.710Z,30.26
2022-08-14T18:00:01.377Z,30.57
2022-08-14T18:02:31.958Z,30.58
2022-08-14T18:05:03.154Z,30.89
2022-08-14T18:07:50.364Z,30.55
2022-08-14T18:10:55.494Z,30.78
2022-08-14T18:13:11.516Z,30.99
2022-08-14T18:15:50.955Z,31.09
2022-08-14T18:18:19.949Z,30.87
2022-08-14T18:21:24.306Z,30.96
2022-08-14T18:23:48.125Z,31.17
2022-08-14T18:26:36.129Z,31.35
2022-08-14T18:29:14.780Z,31.42
2022-08-14T18:31:45.395Z,31.61
2022-08-14T18:34:31.185Z,31.65
2022-08-14T18:37:11.038Z,31.74
2022-08-14T18:40:02.250Z,31.51
2022-08-14T18:42:48.135Z,31.94
2022-08-14T18:45:18.856Z,32.00
2022-08-14T18:48:16.029Z,32.24
2022-08-14T18:50:52.640Z,32.22
2022-08-14T18:53:24.856Z,32.20
2022-08-14T18:55:59.959Z,32.34
2022-08-14T18:58:58.549Z,32.52
2022-08-14T19:01:30.807Z,32.53
2022-08-14T19:04:03.969Z,32.67
2022-08-14T19:06:56.029Z,33.12
2022-08-14T19:09:56.356Z,33.25
2022-08-14T19:13:13.275Z,33.55
2022-08-14T19:15:56.422Z,33.46
2022-08-14T19:18:28.481Z,33.57
2022-08-14T19:21:01.588Z,33.56
2022-08-14T19:23:42.850Z,33.89
2022-08-14T19:26:35.543Z,34.24
2022-08-14T19:29:36.214Z,34.25
2022-08-14T19:32:40.494Z,33.94
2022-08-14T19:35:49.759Z,34.33
2022-08-14T19:38:54.334Z,34.12
2022-08-14T19:41:30.535Z,34.56
2022-08-14T19:44:12.806Z,35.01
2022-08-14T19:47:01.041Z,34.75
2022-08-14T19:50:24.898Z,35.07
2022-08-14T19:52:29.954Z,35.46
2022-08-14T19:55:01.359Z,35.83
2022-08-14T19:57:32.645Z,35.75
2022-08-14T20:00:28.716Z,35.98
2022-08-14T20:03:10.109Z,35.67
2022-08-14T20:05:45.749Z,35.89
2022-08-14T20:11:00.995Z,36.15
2022-08-14T20:11:41.639Z,36.44
2022-08-14T20:14:11.782Z,36.60
2022-08-14T20:16:54.739Z,36.51
2022-08-14T20:19:28.807Z,36.81
2022-08-14T20:22:34.707Z,36.27
2022-08-14T20:24:50.089Z,36.49
2022-08-14T20:27:44.283Z,36.72
2022-08-14T20:30:37.582Z,36.63
2022-08-14T20:33:10.536Z,36.37
2022-08-14T20:35:44.377Z,36.94
2022-08-14T20:38:29.888Z,37.02
2022-08-14T20:41:06.345Z,36.56
2022-08-14T20:43:58.620Z,36.58
2022-08-14T20:46:38.647Z,36.65
2022-08-14T20:49:10.888Z,36.74
2022-08-14T20:51:54.473Z,37.15
2022-08-14T20:54:34.673Z,37.33
2022-08-14T20:57:10.546Z,37.42
2022-08-14T20:59:44.225Z,37.50
2022-08-14T21:02:34.483Z,37.54
2022-08-14T21:05:16.685Z,37.21
2022-08-14T21:07:51.194Z,37.59
2022-08-14T21:10:36.407Z,37.77
2022-08-14T21:14:09.285Z,37.84
2022-08-14T21:16:25.926Z,37.93
2022-08-14T21:19:00.100Z,37.83
2022-08-14T21:21:40.867Z,38.07
2022-08-14T21:24:40.078Z,38.03
2022-08-14T21:27:20.491Z,38.35
2022-08-14T21:29:55.625Z,38.38
2022-08-14T21:32:47.077Z,38.56
2022-08-14T21:35:22.934Z,38.08
2022-08-14T21:37:52.606Z,38.14
2022-08-14T21:40:42.186Z,38.32
2022-08-14T21:43:18.608Z,38.35
2022-08-14T21:45:53.472Z,38.44
2022-08-14T21:48:26.341Z,38.39
2022-08-14T21:51:54.392Z,38.92
2022-08-14T21:53:59.401Z,38.56
2022-08-14T21:56:38.301Z,38.74
2022-08-14T21:59:11.695Z,39.05
2022-08-14T22:02:00.676Z,39.19
2022-08-14T22:04:39.970Z,39.23
2022-08-14T22:07:16.955Z,39.16
2022-08-14T22:09:54.838Z,39.28
2022-08-14T22:12:57.803Z,38.99
2022-08-14T22:15:17.133Z,39.07
2022-08-14T22:17:50.960Z,39.19
2022-08-14T22:20:28.132Z,39.03
2022-08-14T22:23:03.142Z,39.54
2022-08-14T22:25:33.108Z,39.56
2022-08-14T22:28:05.808Z,39.48
2022-08-14T22:30:35.379Z,39.90
2022-08-14T22:33:04.754Z,39.92
2022-08-14T22:35:34.774Z,39.90
2022-08-14T22:38:37.781Z,39.40
2022-08-14T22:41:17.973Z,39.72
2022-08-14T22:43:45.564Z,39.98
2022-08-14T22:46:20.251Z,40.03
2022-08-14T22:48:51.115Z,39.73
2022-08-14T22:51:23.739Z,39.75
2022-08-14T22:53:56.883Z,39.98
2022-08-14T22:56:30.454Z,39.96
2022-08-14T22:59:01.393Z,40.24
2022-08-14T23:01:46.149Z,40.41
2022-08-14T23:04:34.110Z,40.43
2022-08-14T23:07:07.345Z,39.98
2022-08-14T23:09:38.687Z,40.66
2022-08-14T23:12:27.898Z,40.21
2022-08-14T23:14:59.800Z,40.48
2022-08-14T23:17:39.571Z,40.60
2022-08-14T23:20:19.173Z,40.42
2022-08-14T23:22:51.827Z,40.26
2022-08-14T23:25:57.801Z,40.38
2022-08-14T23:28:34.763Z,40.50
2022-08-14T23:31:13.011Z,40.64
2022-08-14T23:33:51.934Z,40.70
2022-08-14T23:36:28.548Z,40.57
2022-08-14T23:39:12.373Z,40.66
2022-08-14T23:41:53.067Z,40.63
2022-08-14T23:44:24.515Z,40.71
2022-08-14T23:46:56.732Z,40.87
2022-08-14T23:49:41.207Z,41.18
2022-08-14T23:52:55.804Z,40.75
2022-08-14T23:55:11.025Z,40.78
2022-08-14T23:57:43.830Z,40.91
